sensor_id;sensor_type;location;lat;lon;timestamp;pressure;altitude;pressure_sealevel;temperature;humidity
70200;BME280;57587;55.688;37.600;2023-01-30T00:01:02;98626.09;;;0.29;61.88
70200;BME280;57587;55.688;37.600;2023-01-30T00:03:29;98619.88;;;0.20;61.91
70200;BME280;57587;55.688;37.600;2023-01-30T00:05:56;98617.09;;;0.21;62.27
70200;BME280;57587;55.688;37.600;2023-01-30T00:08:24;98620.69;;;0.30;61.96
70200;BME280;57587;55.688;37.600;2023-01-30T00:10:51;98610.47;;;0.17;61.84
70200;BME280;57587;55.688;37.600;2023-01-30T00:13:18;98605.22;;;0.08;62.27
70200;BME280;57587;55.688;37.600;2023-01-30T00:15:46;98612.72;;;-0.17;62.91
70200;BME280;57587;55.688;37.600;2023-01-30T00:18:14;98612.72;;;-0.17;63.24
70200;BME280;57587;55.688;37.600;2023-01-30T00:20:41;98604.41;;;-0.22;63.23
70200;BME280;57587;55.688;37.600;2023-01-30T00:23:08;98597.75;;;-0.16;63.21
70200;BME280;57587;55.688;37.600;2023-01-30T00:25:35;98598.19;;;-0.11;63.06
70200;BME280;57587;55.688;37.600;2023-01-30T00:28:02;98595.81;;;-0.05;63.37
70200;BME280;57587;55.688;37.600;2023-01-30T00:30:29;98591.94;;;-0.01;63.15
70200;BME280;57587;55.688;37.600;2023-01-30T00:32:57;98587.50;;;-0.10;62.87
70200;BME280;57587;55.688;37.600;2023-01-30T00:35:25;98582.28;;;0.00;63.60
70200;BME280;57587;55.688;37.600;2023-01-30T00:37:58;98577.56;;;0.04;62.96
70200;BME280;57587;55.688;37.600;2023-01-30T00:40:27;98569.78;;;0.02;63.13
70200;BME280;57587;55.688;37.600;2023-01-30T00:42:55;98570.91;;;-0.01;63.25
70200;BME280;57587;55.688;37.600;2023-01-30T00:45:43;98564.00;;;-0.02;63.31
70200;BME280;57587;55.688;37.600;2023-01-30T00:48:29;98571.31;;;0.05;63.51
70200;BME280;57587;55.688;37.600;2023-01-30T00:50:57;98569.19;;;0.18;63.36
70200;BME280;57587;55.688;37.600;2023-01-30T00:53:24;98569.59;;;0.23;63.19
70200;BME280;57587;55.688;37.600;2023-01-30T00:55:52;98561.72;;;0.23;62.83
70200;BME280;57587;55.688;37.600;2023-01-30T00:58:21;98563.91;;;0.37;62.83
70200;BME280;57587;55.688;37.600;2023-01-30T01:00:49;98558.50;;;0.29;62.79
70200;BME280;57587;55.688;37.600;2023-01-30T01:03:17;98551.59;;;0.28;62.45
70200;BME280;57587;55.688;37.600;2023-01-30T01:05:46;98546.69;;;-0.04;63.42
70200;BME280;57587;55.688;37.600;2023-01-30T01:08:13;98553.22;;;-0.18;63.95
70200;BME280;57587;55.688;37.600;2023-01-30T01:10:41;98542.69;;;-0.08;63.83
70200;BME280;57587;55.688;37.600;2023-01-30T01:13:08;98541.97;;;-0.01;63.63
70200;BME280;57587;55.688;37.600;2023-01-30T01:15:36;98553.03;;;0.13;63.93
70200;BME280;57587;55.688;37.600;2023-01-30T01:18:04;98547.78;;;-0.07;64.19
70200;BME280;57587;55.688;37.600;2023-01-30T01:20:32;98536.31;;;-0.06;63.83
70200;BME280;57587;55.688;37.600;2023-01-30T01:22:59;98535.22;;;-0.13;64.20
70200;BME280;57587;55.688;37.600;2023-01-30T01:25:26;98533.00;;;-0.08;63.88
70200;BME280;57587;55.688;37.600;2023-01-30T01:27:53;98525.53;;;-0.12;64.18
70200;BME280;57587;55.688;37.600;2023-01-30T01:30:21;98527.47;;;-0.14;64.39
70200;BME280;57587;55.688;37.600;2023-01-30T01:32:48;98524.03;;;-0.15;64.06
70200;BME280;57587;55.688;37.600;2023-01-30T01:35:15;98519.03;;;-0.08;64.25
70200;BME280;57587;55.688;37.600;2023-01-30T01:37:42;98522.16;;;0.05;64.27
70200;BME280;57587;55.688;37.600;2023-01-30T01:40:16;98513.97;;;0.18;63.87
70200;BME280;57587;55.688;37.600;2023-01-30T01:43:21;98514.38;;;0.23;63.66
70200;BME280;57587;55.688;37.600;2023-01-30T01:46:17;98493.97;;;-0.03;63.77
70200;BME280;57587;55.688;37.600;2023-01-30T01:48:49;98492.59;;;-0.16;64.47
70200;BME280;57587;55.688;37.600;2023-01-30T01:51:23;98484.59;;;-0.15;64.66
70200;BME280;57587;55.688;37.600;2023-01-30T01:54:23;98471.31;;;-0.23;64.37
70200;BME280;57587;55.688;37.600;2023-01-30T01:56:48;98478.75;;;-0.09;65.14
70200;BME280;57587;55.688;37.600;2023-01-30T01:59:26;98482.63;;;-0.03;64.87
70200;BME280;57587;55.688;37.600;2023-01-30T02:01:59;98467.50;;;-0.01;65.13
70200;BME280;57587;55.688;37.600;2023-01-30T02:04:28;98465.13;;;0.06;65.20
70200;BME280;57587;55.688;37.600;2023-01-30T02:07:19;98457.06;;;0.17;65.18
70200;BME280;57587;55.688;37.600;2023-01-30T02:09:49;98462.63;;;0.14;65.08
70200;BME280;57587;55.688;37.600;2023-01-30T02:12:16;98448.19;;;0.18;64.66
70200;BME280;57587;55.688;37.600;2023-01-30T02:14:45;98454.03;;;0.12;64.50
70200;BME280;57587;55.688;37.600;2023-01-30T02:17:33;98450.88;;;0.08;64.31
70200;BME280;57587;55.688;37.600;2023-01-30T02:31:15;98436.44;;;-0.15;64.55
70200;BME280;57587;55.688;37.600;2023-01-30T02:39:36;98424.56;;;0.08;63.50
70200;BME280;57587;55.688;37.600;2023-01-30T02:42:24;98412.38;;;-0.20;64.34
70200;BME280;57587;55.688;37.600;2023-01-30T02:45:14;98409.88;;;-0.22;63.90
70200;BME280;57587;55.688;37.600;2023-01-30T02:50:44;98404.41;;;-0.01;63.75
70200;BME280;57587;55.688;37.600;2023-01-30T02:53:13;98402.31;;;0.03;63.30
70200;BME280;57587;55.688;37.600;2023-01-30T02:55:41;98397.44;;;0.08;63.73
70200;BME280;57587;55.688;37.600;2023-01-30T02:58:09;98400.06;;;0.08;63.63
70200;BME280;57587;55.688;37.600;2023-01-30T03:12:10;98378.69;;;-0.07;64.03
70200;BME280;57587;55.688;37.600;2023-01-30T03:14:48;98369.09;;;0.02;63.26
70200;BME280;57587;55.688;37.600;2023-01-30T03:17:20;98357.53;;;-0.06;62.58
70200;BME280;57587;55.688;37.600;2023-01-30T03:19:52;98356.78;;;0.02;63.56
70200;BME280;57587;55.688;37.600;2023-01-30T03:22:21;98354.66;;;0.06;62.97
70200;BME280;57587;55.688;37.600;2023-01-30T03:24:50;98342.84;;;-0.08;63.30
70200;BME280;57587;55.688;37.600;2023-01-30T03:27:18;98347.59;;;-0.12;63.16
70200;BME280;57587;55.688;37.600;2023-01-30T03:29:46;98349.81;;;-0.17;63.31
70200;BME280;57587;55.688;37.600;2023-01-30T03:32:14;98347.88;;;-0.15;63.44
70200;BME280;57587;55.688;37.600;2023-01-30T03:34:41;98345.91;;;-0.13;63.13
70200;BME280;57587;55.688;37.600;2023-01-30T03:37:09;98343.19;;;-0.21;63.12
70200;BME280;57587;55.688;37.600;2023-01-30T03:39:36;98340.84;;;-0.24;63.40
70200;BME280;57587;55.688;37.600;2023-01-30T03:42:05;98326.56;;;-0.12;63.78
70200;BME280;57587;55.688;37.600;2023-01-30T03:44:32;98326.91;;;-0.25;63.62
70200;BME280;57587;55.688;37.600;2023-01-30T03:46:59;98325.59;;;-0.48;64.69
70200;BME280;57587;55.688;37.600;2023-01-30T03:49:27;98338.53;;;-0.27;64.02
70200;BME280;57587;55.688;37.600;2023-01-30T03:51:55;98324.16;;;-0.33;64.13
70200;BME280;57587;55.688;37.600;2023-01-30T03:54:22;98315.16;;;-0.30;63.81
70200;BME280;57587;55.688;37.600;2023-01-30T03:56:49;98317.66;;;-0.38;64.24
70200;BME280;57587;55.688;37.600;2023-01-30T03:59:17;98306.88;;;-0.35;64.08
70200;BME280;57587;55.688;37.600;2023-01-30T04:01:50;98298.00;;;-0.34;64.02
70200;BME280;57587;55.688;37.600;2023-01-30T04:04:17;98293.16;;;-0.29;64.09
70200;BME280;57587;55.688;37.600;2023-01-30T04:06:44;98289.59;;;-0.10;63.54
70200;BME280;57587;55.688;37.600;2023-01-30T04:09:12;98273.16;;;-0.12;63.27
70200;BME280;57587;55.688;37.600;2023-01-30T04:11:43;98279.00;;;-0.01;63.12
70200;BME280;57587;55.688;37.600;2023-01-30T04:14:10;98272.28;;;-0.13;62.99
70200;BME280;57587;55.688;37.600;2023-01-30T04:16:52;98269.59;;;-0.21;63.21
70200;BME280;57587;55.688;37.600;2023-01-30T04:19:39;98272.41;;;-0.32;63.93
70200;BME280;57587;55.688;37.600;2023-01-30T04:22:06;98266.38;;;-0.42;64.07
70200;BME280;57587;55.688;37.600;2023-01-30T04:24:34;98260.50;;;-0.54;63.96
70200;BME280;57587;55.688;37.600;2023-01-30T04:27:01;98262.78;;;-0.41;64.03
70200;BME280;57587;55.688;37.600;2023-01-30T04:29:32;98271.66;;;-0.42;63.13
70200;BME280;57587;55.688;37.600;2023-01-30T04:32:03;98257.56;;;-0.51;63.78
70200;BME280;57587;55.688;37.600;2023-01-30T04:34:33;98266.84;;;-0.57;64.21
70200;BME280;57587;55.688;37.600;2023-01-30T04:37:00;98265.28;;;-0.50;63.99
70200;BME280;57587;55.688;37.600;2023-01-30T04:39:29;98257.28;;;-0.48;63.56
70200;BME280;57587;55.688;37.600;2023-01-30T04:41:56;98251.25;;;-0.58;64.21
70200;BME280;57587;55.688;37.600;2023-01-30T04:44:23;98252.78;;;-0.56;63.94
70200;BME280;57587;55.688;37.600;2023-01-30T04:47:19;98249.94;;;-0.44;63.84
70200;BME280;57587;55.688;37.600;2023-01-30T04:49:46;98242.75;;;-0.42;64.09
70200;BME280;57587;55.688;37.600;2023-01-30T04:52:15;98231.09;;;-0.40;63.65
70200;BME280;57587;55.688;37.600;2023-01-30T04:54:42;98229.91;;;-0.45;63.51
70200;BME280;57587;55.688;37.600;2023-01-30T04:57:09;98228.38;;;-0.48;63.46
70200;BME280;57587;55.688;37.600;2023-01-30T04:59:36;98228.97;;;-0.54;64.05
70200;BME280;57587;55.688;37.600;2023-01-30T05:02:08;98225.22;;;-0.52;64.02
70200;BME280;57587;55.688;37.600;2023-01-30T05:04:35;98216.66;;;-0.54;63.85
70200;BME280;57587;55.688;37.600;2023-01-30T05:07:02;98215.38;;;-0.50;63.77
70200;BME280;57587;55.688;37.600;2023-01-30T05:09:29;98213.50;;;-0.57;63.69
70200;BME280;57587;55.688;37.600;2023-01-30T05:11:59;98208.88;;;-0.45;63.71
70200;BME280;57587;55.688;37.600;2023-01-30T05:14:27;98206.06;;;-0.44;63.41
70200;BME280;57587;55.688;37.600;2023-01-30T05:16:54;98202.34;;;-0.41;63.55
70200;BME280;57587;55.688;37.600;2023-01-30T05:19:21;98202.97;;;-0.30;63.60
70200;BME280;57587;55.688;37.600;2023-01-30T05:21:48;98186.13;;;-0.37;63.04
70200;BME280;57587;55.688;37.600;2023-01-30T05:24:15;98190.88;;;-0.22;63.29
70200;BME280;57587;55.688;37.600;2023-01-30T05:26:42;98182.09;;;-0.13;62.82
70200;BME280;57587;55.688;37.600;2023-01-30T05:29:09;98173.06;;;-0.29;63.28
70200;BME280;57587;55.688;37.600;2023-01-30T05:31:36;98171.34;;;-0.20;63.31
70200;BME280;57587;55.688;37.600;2023-01-30T05:34:04;98166.69;;;-0.26;62.71
70200;BME280;57587;55.688;37.600;2023-01-30T05:36:31;98160.28;;;-0.41;63.50
70200;BME280;57587;55.688;37.600;2023-01-30T05:38:58;98166.59;;;-0.34;63.25
70200;BME280;57587;55.688;37.600;2023-01-30T05:41:25;98161.34;;;-0.34;63.35
70200;BME280;57587;55.688;37.600;2023-01-30T05:43:52;98156.94;;;-0.34;63.89
70200;BME280;57587;55.688;37.600;2023-01-30T05:46:20;98148.81;;;-0.22;63.04
70200;BME280;57587;55.688;37.600;2023-01-30T05:48:47;98145.06;;;-0.20;63.11
70200;BME280;57587;55.688;37.600;2023-01-30T05:51:19;98148.81;;;-0.05;62.46
70200;BME280;57587;55.688;37.600;2023-01-30T05:53:47;98141.75;;;-0.04;62.26
70200;BME280;57587;55.688;37.600;2023-01-30T05:56:15;98136.44;;;-0.12;62.84
70200;BME280;57587;55.688;37.600;2023-01-30T05:58:43;98135.53;;;-0.21;63.11
70200;BME280;57587;55.688;37.600;2023-01-30T06:01:11;98124.03;;;-0.38;62.90
70200;BME280;57587;55.688;37.600;2023-01-30T06:03:38;98119.22;;;-0.42;63.61
70200;BME280;57587;55.688;37.600;2023-01-30T06:06:06;98123.28;;;-0.30;63.32
70200;BME280;57587;55.688;37.600;2023-01-30T06:08:33;98114.28;;;-0.45;63.81
70200;BME280;57587;55.688;37.600;2023-01-30T06:11:01;98122.38;;;-0.21;63.34
70200;BME280;57587;55.688;37.600;2023-01-30T06:13:29;98119.06;;;-0.23;63.04
70200;BME280;57587;55.688;37.600;2023-01-30T06:15:56;98124.84;;;-0.37;63.41
70200;BME280;57587;55.688;37.600;2023-01-30T06:18:23;98121.41;;;-0.38;63.87
70200;BME280;57587;55.688;37.600;2023-01-30T06:20:51;98123.75;;;-0.53;64.13
70200;BME280;57587;55.688;37.600;2023-01-30T06:23:19;98123.28;;;-0.48;64.47
70200;BME280;57587;55.688;37.600;2023-01-30T06:25:48;98114.72;;;-0.32;64.16
70200;BME280;57587;55.688;37.600;2023-01-30T06:28:17;98112.25;;;-0.34;63.97
70200;BME280;57587;55.688;37.600;2023-01-30T06:30:44;98124.31;;;-0.23;63.88
70200;BME280;57587;55.688;37.600;2023-01-30T06:33:11;98117.47;;;-0.16;63.67
70200;BME280;57587;55.688;37.600;2023-01-30T06:35:39;98124.50;;;-0.25;63.44
70200;BME280;57587;55.688;37.600;2023-01-30T06:38:08;98117.84;;;-0.47;64.00
70200;BME280;57587;55.688;37.600;2023-01-30T06:40:42;98111.41;;;-0.34;63.99
70200;BME280;57587;55.688;37.600;2023-01-30T06:43:09;98115.63;;;-0.24;64.11
70200;BME280;57587;55.688;37.600;2023-01-30T06:45:36;98106.31;;;-0.18;63.67
70200;BME280;57587;55.688;37.600;2023-01-30T06:48:04;98108.63;;;-0.15;63.68
70200;BME280;57587;55.688;37.600;2023-01-30T06:50:31;98103.91;;;-0.29;63.94
70200;BME280;57587;55.688;37.600;2023-01-30T06:53:04;98100.16;;;-0.44;64.53
70200;BME280;57587;55.688;37.600;2023-01-30T06:55:33;98099.84;;;-0.41;64.57
70200;BME280;57587;55.688;37.600;2023-01-30T06:58:07;98106.53;;;-0.47;65.32
70200;BME280;57587;55.688;37.600;2023-01-30T07:00:36;98111.41;;;-0.34;64.77
70200;BME280;57587;55.688;37.600;2023-01-30T07:03:16;98101.44;;;-0.49;65.32
70200;BME280;57587;55.688;37.600;2023-01-30T07:05:45;98110.75;;;-0.36;65.46
70200;BME280;57587;55.688;37.600;2023-01-30T07:08:13;98104.91;;;-0.30;64.77
70200;BME280;57587;55.688;37.600;2023-01-30T07:10:42;98105.94;;;-0.23;64.32
70200;BME280;57587;55.688;37.600;2023-01-30T07:13:09;98100.03;;;-0.43;65.13
70200;BME280;57587;55.688;37.600;2023-01-30T07:15:37;98105.25;;;-0.25;65.40
70200;BME280;57587;55.688;37.600;2023-01-30T07:18:04;98088.72;;;-0.17;64.41
70200;BME280;57587;55.688;37.600;2023-01-30T07:20:31;98096.91;;;-0.03;64.49
70200;BME280;57587;55.688;37.600;2023-01-30T07:22:59;98094.50;;;-0.14;63.94
70200;BME280;57587;55.688;37.600;2023-01-30T07:25:27;98088.25;;;-0.13;63.95
70200;BME280;57587;55.688;37.600;2023-01-30T07:27:56;98079.72;;;-0.15;64.24
70200;BME280;57587;55.688;37.600;2023-01-30T07:30:24;98072.28;;;-0.19;64.35
70200;BME280;57587;55.688;37.600;2023-01-30T07:32:53;98053.53;;;-0.25;64.32
70200;BME280;57587;55.688;37.600;2023-01-30T07:35:21;98071.47;;;-0.20;64.42
70200;BME280;57587;55.688;37.600;2023-01-30T07:37:49;98065.38;;;-0.20;64.33
70200;BME280;57587;55.688;37.600;2023-01-30T07:40:18;98060.63;;;-0.17;64.45
70200;BME280;57587;55.688;37.600;2023-01-30T07:43:14;98055.38;;;-0.17;64.70
70200;BME280;57587;55.688;37.600;2023-01-30T07:45:47;98054.34;;;-0.24;64.39
70200;BME280;57587;55.688;37.600;2023-01-30T07:48:17;98049.25;;;-0.43;65.04
70200;BME280;57587;55.688;37.600;2023-01-30T07:50:45;98057.94;;;-0.25;64.69
70200;BME280;57587;55.688;37.600;2023-01-30T07:53:14;98060.63;;;-0.17;64.91
70200;BME280;57587;55.688;37.600;2023-01-30T07:55:42;98048.03;;;-0.31;64.99
70200;BME280;57587;55.688;37.600;2023-01-30T07:58:11;98049.09;;;-0.24;64.77
70200;BME280;57587;55.688;37.600;2023-01-30T08:00:39;98038.38;;;-0.31;64.70
70200;BME280;57587;55.688;37.600;2023-01-30T08:03:14;98046.44;;;-0.06;64.68
70200;BME280;57587;55.688;37.600;2023-01-30T08:05:41;98037.75;;;0.02;63.87
70200;BME280;57587;55.688;37.600;2023-01-30T08:08:09;98033.72;;;0.15;64.05
70200;BME280;57587;55.688;37.600;2023-01-30T08:10:36;98025.22;;;0.21;63.71
70200;BME280;57587;55.688;37.600;2023-01-30T08:13:04;98025.38;;;0.20;63.87
70200;BME280;57587;55.688;37.600;2023-01-30T08:15:30;98012.47;;;0.35;63.31
70200;BME280;57587;55.688;37.600;2023-01-30T08:17:59;98019.31;;;0.19;63.41
70200;BME280;57587;55.688;37.600;2023-01-30T08:20:26;98017.50;;;0.20;63.14
70200;BME280;57587;55.688;37.600;2023-01-30T08:22:54;98007.34;;;0.25;63.04
70200;BME280;57587;55.688;37.600;2023-01-30T08:25:21;98010.31;;;0.30;63.78
70200;BME280;57587;55.688;37.600;2023-01-30T08:27:49;98009.41;;;0.13;63.88
70200;BME280;57587;55.688;37.600;2023-01-30T08:30:17;98001.00;;;0.10;63.65
70200;BME280;57587;55.688;37.600;2023-01-30T08:32:45;98001.00;;;0.10;64.13
70200;BME280;57587;55.688;37.600;2023-01-30T08:35:13;97986.09;;;-0.08;64.80
70200;BME280;57587;55.688;37.600;2023-01-30T08:37:41;97987.44;;;-0.04;64.56
70200;BME280;57587;55.688;37.600;2023-01-30T08:40:08;97982.06;;;0.06;64.03
70200;BME280;57587;55.688;37.600;2023-01-30T08:42:36;97969.19;;;-0.05;64.17
70200;BME280;57587;55.688;37.600;2023-01-30T08:45:03;97973.13;;;-0.09;64.59
70200;BME280;57587;55.688;37.600;2023-01-30T08:47:31;97985.91;;;-0.14;65.53
70200;BME280;57587;55.688;37.600;2023-01-30T08:49:58;97982.91;;;0.07;65.01
70200;BME280;57587;55.688;37.600;2023-01-30T08:52:25;97982.50;;;0.28;64.83
70200;BME280;57587;55.688;37.600;2023-01-30T08:54:52;97976.09;;;0.22;64.37
70200;BME280;57587;55.688;37.600;2023-01-30T08:57:19;97970.47;;;0.17;64.15
70200;BME280;57587;55.688;37.600;2023-01-30T08:59:46;97969.16;;;0.21;64.57
70200;BME280;57587;55.688;37.600;2023-01-30T09:02:17;97964.50;;;0.07;64.54
70200;BME280;57587;55.688;37.600;2023-01-30T09:04:44;97963.56;;;0.16;64.23
70200;BME280;57587;55.688;37.600;2023-01-30T09:07:11;97953.19;;;0.14;64.46
70200;BME280;57587;55.688;37.600;2023-01-30T09:09:38;97945.91;;;0.08;64.30
70200;BME280;57587;55.688;37.600;2023-01-30T09:12:05;97948.41;;;0.10;64.39
70200;BME280;57587;55.688;37.600;2023-01-30T09:14:32;97946.47;;;0.20;63.90
70200;BME280;57587;55.688;37.600;2023-01-30T09:16:59;97942.22;;;0.19;64.95
70200;BME280;57587;55.688;37.600;2023-01-30T09:19:27;97942.47;;;0.50;64.33
70200;BME280;57587;55.688;37.600;2023-01-30T09:21:54;97947.09;;;0.56;63.15
70200;BME280;57587;55.688;37.600;2023-01-30T09:24:22;97942.81;;;0.47;63.22
70200;BME280;57587;55.688;37.600;2023-01-30T09:26:53;97944.78;;;0.53;63.07
70200;BME280;57587;55.688;37.600;2023-01-30T09:29:23;97934.44;;;0.60;63.23
70200;BME280;57587;55.688;37.600;2023-01-30T09:31:50;97926.84;;;0.49;63.17
70200;BME280;57587;55.688;37.600;2023-01-30T09:34:18;97917.63;;;0.44;62.93
70200;BME280;57587;55.688;37.600;2023-01-30T09:36:45;97921.53;;;0.32;63.72
70200;BME280;57587;55.688;37.600;2023-01-30T09:39:12;97919.91;;;0.31;63.57
70200;BME280;57587;55.688;37.600;2023-01-30T09:41:58;97913.69;;;0.40;63.16
70200;BME280;57587;55.688;37.600;2023-01-30T09:47:15;97908.09;;;0.52;63.30
70200;BME280;57587;55.688;37.600;2023-01-30T09:55:27;97895.75;;;0.44;63.38
70200;BME280;57587;55.688;37.600;2023-01-30T09:57:58;97881.25;;;0.40;63.30
70200;BME280;57587;55.688;37.600;2023-01-30T10:00:38;97880.13;;;0.34;63.72
70200;BME280;57587;55.688;37.600;2023-01-30T10:03:19;97871.09;;;0.45;63.53
70200;BME280;57587;55.688;37.600;2023-01-30T10:05:55;97870.25;;;0.44;63.24
70200;BME280;57587;55.688;37.600;2023-01-30T10:14:23;97861.06;;;0.65;63.05
70200;BME280;57587;55.688;37.600;2023-01-30T10:27:32;97839.03;;;0.58;63.12
70200;BME280;57587;55.688;37.600;2023-01-30T10:30:03;97837.06;;;0.68;62.78
70200;BME280;57587;55.688;37.600;2023-01-30T10:32:59;97837.72;;;0.70;62.56
70200;BME280;57587;55.688;37.600;2023-01-30T10:35:37;97817.16;;;0.82;62.45
70200;BME280;57587;55.688;37.600;2023-01-30T10:38:25;97819.47;;;0.85;61.81
70200;BME280;57587;55.688;37.600;2023-01-30T10:41:33;97828.19;;;0.77;62.06
70200;BME280;57587;55.688;37.600;2023-01-30T10:44:10;97833.13;;;0.72;62.16
70200;BME280;57587;55.688;37.600;2023-01-30T10:49:52;97796.59;;;0.85;61.83
70200;BME280;57587;55.688;37.600;2023-01-30T10:52:22;97810.41;;;0.79;62.08
70200;BME280;57587;55.688;37.600;2023-01-30T10:58:24;97797.91;;;0.81;62.56
70200;BME280;57587;55.688;37.600;2023-01-30T11:00:59;97793.97;;;0.85;62.35
70200;BME280;57587;55.688;37.600;2023-01-30T11:06:17;97785.56;;;0.90;61.76
70200;BME280;57587;55.688;37.600;2023-01-30T11:08:44;97786.69;;;1.04;62.04
70200;BME280;57587;55.688;37.600;2023-01-30T11:14:07;97781.47;;;0.87;61.99
70200;BME280;57587;55.688;37.600;2023-01-30T11:16:46;97776.69;;;0.83;61.92
70200;BME280;57587;55.688;37.600;2023-01-30T11:19:16;97780.63;;;0.71;62.86
70200;BME280;57587;55.688;37.600;2023-01-30T11:21:58;97770.28;;;0.69;62.79
70200;BME280;57587;55.688;37.600;2023-01-30T11:24:30;97768.28;;;0.71;62.59
70200;BME280;57587;55.688;37.600;2023-01-30T11:27:18;97769.28;;;0.70;63.73
70200;BME280;57587;55.688;37.600;2023-01-30T11:29:47;97760.06;;;0.74;62.88
70200;BME280;57587;55.688;37.600;2023-01-30T11:32:27;97754.47;;;0.77;62.93
70200;BME280;57587;55.688;37.600;2023-01-30T11:37:42;97755.75;;;0.98;62.48
70200;BME280;57587;55.688;37.600;2023-01-30T11:42:46;97758.56;;;0.80;63.59
70200;BME280;57587;55.688;37.600;2023-01-30T11:45:16;97743.94;;;0.85;63.42
70200;BME280;57587;55.688;37.600;2023-01-30T11:47:54;97744.94;;;0.84;63.44
70200;BME280;57587;55.688;37.600;2023-01-30T11:50:41;97740.63;;;0.91;63.45
70200;BME280;57587;55.688;37.600;2023-01-30T11:55:58;97741.63;;;0.82;63.79
70200;BME280;57587;55.688;37.600;2023-01-30T11:58:37;97739.97;;;0.89;64.33
70200;BME280;57587;55.688;37.600;2023-01-30T12:01:08;97733.91;;;0.81;64.49
70200;BME280;57587;55.688;37.600;2023-01-30T12:03:43;97733.59;;;0.84;64.65
70200;BME280;57587;55.688;37.600;2023-01-30T12:06:20;97728.47;;;0.74;64.61
70200;BME280;57587;55.688;37.600;2023-01-30T12:08:51;97729.28;;;0.91;65.09
70200;BME280;57587;55.688;37.600;2023-01-30T12:14:24;97716.94;;;0.91;64.68
70200;BME280;57587;55.688;37.600;2023-01-30T12:25:21;97708.69;;;0.95;64.88
70200;BME280;57587;55.688;37.600;2023-01-30T12:28:02;97714.63;;;0.88;64.58
70200;BME280;57587;55.688;37.600;2023-01-30T12:30:41;97714.34;;;0.75;65.45
70200;BME280;57587;55.688;37.600;2023-01-30T12:33:12;97702.16;;;0.74;65.02
70200;BME280;57587;55.688;37.600;2023-01-30T13:08:26;97653.78;;;0.75;66.25
70200;BME280;57587;55.688;37.600;2023-01-30T13:13:47;97664.47;;;0.90;65.85
70200;BME280;57587;55.688;37.600;2023-01-30T13:16:31;97655.56;;;0.91;65.57
70200;BME280;57587;55.688;37.600;2023-01-30T13:22:21;97643.88;;;0.94;65.45
70200;BME280;57587;55.688;37.600;2023-01-30T13:25:13;97653.75;;;0.91;65.75
70200;BME280;57587;55.688;37.600;2023-01-30T13:28:02;97646.19;;;0.80;65.68
70200;BME280;57587;55.688;37.600;2023-01-30T13:30:33;97647.88;;;0.65;66.21
70200;BME280;57587;55.688;37.600;2023-01-30T13:33:15;97642.94;;;0.70;67.01
70200;BME280;57587;55.688;37.600;2023-01-30T13:35:59;97641.78;;;0.73;66.90
70200;BME280;57587;55.688;37.600;2023-01-30T13:38:30;97641.94;;;0.71;67.47
70200;BME280;57587;55.688;37.600;2023-01-30T13:41:01;97641.13;;;0.71;66.59
70200;BME280;57587;55.688;37.600;2023-01-30T13:43:34;97633.72;;;0.74;67.69
70200;BME280;57587;55.688;37.600;2023-01-30T13:46:07;97628.97;;;0.61;67.74
70200;BME280;57587;55.688;37.600;2023-01-30T13:48:42;97634.22;;;0.61;68.00
70200;BME280;57587;55.688;37.600;2023-01-30T14:09:45;97621.31;;;0.43;66.94
70200;BME280;57587;55.688;37.600;2023-01-30T14:12:27;97618.97;;;0.57;67.01
70200;BME280;57587;55.688;37.600;2023-01-30T14:15:17;97618.34;;;0.47;67.10
70200;BME280;57587;55.688;37.600;2023-01-30T14:18:19;97618.63;;;0.52;67.06
70200;BME280;57587;55.688;37.600;2023-01-30T14:20:51;97623.91;;;0.52;67.14
70200;BME280;57587;55.688;37.600;2023-01-30T14:23:27;97622.75;;;0.54;66.50
70200;BME280;57587;55.688;37.600;2023-01-30T14:26:02;97617.63;;;0.53;66.07
70200;BME280;57587;55.688;37.600;2023-01-30T14:31:01;97611.75;;;0.51;65.87
70200;BME280;57587;55.688;37.600;2023-01-30T14:33:47;97614.34;;;0.59;65.80
70200;BME280;57587;55.688;37.600;2023-01-30T14:38:42;97603.47;;;0.62;64.63
70200;BME280;57587;55.688;37.600;2023-01-30T14:48:44;97619.09;;;0.63;64.55
70200;BME280;57587;55.688;37.600;2023-01-30T14:56:53;97620.44;;;0.51;64.33
70200;BME280;57587;55.688;37.600;2023-01-30T15:04:53;97615.66;;;0.55;64.40
70200;BME280;57587;55.688;37.600;2023-01-30T15:07:26;97616.47;;;0.63;64.22
70200;BME280;57587;55.688;37.600;2023-01-30T15:16:15;97590.44;;;0.77;62.89
70200;BME280;57587;55.688;37.600;2023-01-30T15:29:53;97594.34;;;0.89;62.42
70200;BME280;57587;55.688;37.600;2023-01-30T15:32:25;97596.94;;;0.97;62.81
70200;BME280;57587;55.688;37.600;2023-01-30T15:45:35;97600.75;;;0.86;62.49
70200;BME280;57587;55.688;37.600;2023-01-30T15:50:47;97579.34;;;0.89;62.11
70200;BME280;57587;55.688;37.600;2023-01-30T15:53:15;97587.16;;;0.75;61.68
70200;BME280;57587;55.688;37.600;2023-01-30T15:55:43;97575.84;;;0.66;62.56
70200;BME280;57587;55.688;37.600;2023-01-30T15:58:16;97562.94;;;0.79;61.75
70200;BME280;57587;55.688;37.600;2023-01-30T16:00:46;97573.13;;;0.82;62.18
70200;BME280;57587;55.688;37.600;2023-01-30T16:03:18;97551.41;;;0.80;61.37
70200;BME280;57587;55.688;37.600;2023-01-30T16:05:48;97553.38;;;0.86;61.27
70200;BME280;57587;55.688;37.600;2023-01-30T16:08:22;97553.91;;;0.74;61.05
70200;BME280;57587;55.688;37.600;2023-01-30T16:10:50;97559.19;;;0.74;61.71
70200;BME280;57587;55.688;37.600;2023-01-30T16:13:18;97539.56;;;0.84;61.19
70200;BME280;57587;55.688;37.600;2023-01-30T16:16:09;97555.72;;;0.81;61.37
70200;BME280;57587;55.688;37.600;2023-01-30T16:18:48;97551.28;;;0.74;61.54
70200;BME280;57587;55.688;37.600;2023-01-30T16:21:34;97545.22;;;0.73;61.58
70200;BME280;57587;55.688;37.600;2023-01-30T16:24:16;97552.75;;;0.76;61.61
70200;BME280;57587;55.688;37.600;2023-01-30T16:26:47;97558.97;;;0.83;61.00
70200;BME280;57587;55.688;37.600;2023-01-30T16:29:21;97558.63;;;0.86;60.82
70200;BME280;57587;55.688;37.600;2023-01-30T16:31:50;97555.84;;;0.88;60.88
70200;BME280;57587;55.688;37.600;2023-01-30T16:34:26;97559.81;;;0.84;60.83
70200;BME280;57587;55.688;37.600;2023-01-30T16:36:54;97561.59;;;0.83;61.24